Time;durP1;ratioP1;P1;durP2;ratioP2;P2;SDS_P1;SDS_P2;PMS_P1;PMS_P2;Temp;Humidity;BMP_temperature;BMP_pressure;BME280_temperature;BME280_humidity;BME280_pressure;Samples;Min_cycle;Max_cycle;Signal;HPM_P1;HPM_P2
2023/02/01 00:00:25;;;;;;;;;;;19.00;40.30;;;;;;3066555;19;4495;-81
2023/02/01 00:01:25;;;;;;;;;;;19.00;40.30;;;;;;3064480;19;4767;-81
2023/02/01 00:02:26;;;;;;;;;;;19.00;40.30;;;;;;3067429;19;4872;-81
2023/02/01 00:03:27;;;;;;;;;;;19.00;40.40;;;;;;3064637;19;4728;-81
2023/02/01 00:04:27;;;;;;;;;;;19.00;40.40;;;;;;3066108;19;4958;-81
2023/02/01 00:05:28;;;;;;;;;;;19.00;40.40;;;;;;3065664;19;5029;-81
2023/02/01 00:06:28;;;;;;;;;;;19.00;40.40;;;;;;3064908;19;4967;-80
2023/02/01 00:07:29;;;;;;;;;;;19.00;40.40;;;;;;3069084;19;4920;-81
2023/02/01 00:08:30;;;;;;;;;;;18.90;40.30;;;;;;3069417;19;4983;-78
2023/02/01 00:09:30;;;;;;;;;;;19.00;40.50;;;;;;3071264;19;4846;-81
2023/02/01 00:10:31;;;;;;;;;;;18.90;40.40;;;;;;3069923;19;4394;-81
2023/02/01 00:11:32;;;;;;;;;;;18.90;40.40;;;;;;3068604;19;5089;-81
2023/02/01 00:12:32;;;;;;;;;;;18.90;40.50;;;;;;3069815;19;4792;-81
2023/02/01 00:13:34;;;;;;;;;;;18.90;40.50;;;;;;3067868;19;4375;-81
2023/02/01 00:14:38;;;;;;;;;;;18.90;40.50;;;;;;3068658;19;5032;-79
2023/02/01 00:15:38;;;;;;;;;;;18.90;40.50;;;;;;3070028;19;4392;-81
2023/02/01 00:16:39;;;;;;;;;;;18.90;40.50;;;;;;3071060;19;5102;-81
2023/02/01 00:17:40;;;;;;;;;;;18.90;40.60;;;;;;3069623;19;4983;-82
2023/02/01 00:18:41;;;;;;;;;;;18.90;40.60;;;;;;3070966;19;4935;-82
2023/02/01 00:19:41;;;;;;;;;;;18.90;40.60;;;;;;3070938;19;4423;-81
2023/02/01 00:20:46;;;;;;;;;;;18.90;40.60;;;;;;3070093;19;4359;-81
2023/02/01 00:21:47;;;;;;;;;;;18.90;40.60;;;;;;3069814;19;4859;-82
2023/02/01 00:22:47;;;;;;;;;;;18.90;40.60;;;;;;3068120;19;4409;-81
2023/02/01 00:23:48;;;;;;;;;;;18.90;40.60;;;;;;3069581;19;4340;-82
2023/02/01 00:24:50;;;;;;;;;;;18.80;40.60;;;;;;3069819;19;4919;-82
2023/02/01 00:25:50;;;;;;;;;;;18.80;40.60;;;;;;3069216;19;4956;-81
2023/02/01 00:26:51;;;;;;;;;;;18.80;40.50;;;;;;3070683;19;4918;-81
2023/02/01 00:27:52;;;;;;;;;;;18.80;40.60;;;;;;3069047;19;4345;-82
2023/02/01 00:28:52;;;;;;;;;;;18.80;40.60;;;;;;3071568;19;4312;-81
2023/02/01 00:29:56;;;;;;;;;;;18.80;40.60;;;;;;3070377;19;4429;-81
2023/02/01 00:31:01;;;;;;;;;;;18.80;40.60;;;;;;3069661;19;4388;-81
2023/02/01 00:32:01;;;;;;;;;;;18.80;40.60;;;;;;3069485;19;4834;-81
2023/02/01 00:33:02;;;;;;;;;;;18.80;40.80;;;;;;3068731;19;4790;-81
2023/02/01 00:34:03;;;;;;;;;;;18.80;40.70;;;;;;3067586;19;4213;-81
2023/02/01 00:35:04;;;;;;;;;;;18.70;40.60;;;;;;3067772;19;4643;-81
2023/02/01 00:36:06;;;;;;;;;;;18.70;40.70;;;;;;3070401;19;4689;-81
2023/02/01 00:37:07;;;;;;;;;;;18.80;40.70;;;;;;3069403;19;4923;-80
2023/02/01 00:38:07;;;;;;;;;;;18.80;40.80;;;;;;3069258;19;4406;-81
2023/02/01 00:39:08;;;;;;;;;;;18.70;40.80;;;;;;3068678;19;5012;-80
2023/02/01 00:40:09;;;;;;;;;;;18.70;40.70;;;;;;3068570;19;4527;-81
2023/02/01 00:41:14;;;;;;;;;;;18.70;40.80;;;;;;3070262;19;863;-78
2023/02/01 00:42:15;;;;;;;;;;;18.70;40.80;;;;;;3068365;19;4863;-81
2023/02/01 00:43:16;;;;;;;;;;;18.70;40.90;;;;;;3067906;19;5013;-81
2023/02/01 00:44:16;;;;;;;;;;;18.70;40.80;;;;;;3070571;19;4401;-82
2023/02/01 00:45:17;;;;;;;;;;;18.70;40.80;;;;;;3067564;19;4886;-81
2023/02/01 00:46:19;;;;;;;;;;;18.70;40.90;;;;;;3069962;19;4363;-82
2023/02/01 00:47:19;;;;;;;;;;;18.70;40.80;;;;;;3068699;19;4392;-81
2023/02/01 00:48:20;;;;;;;;;;;18.70;40.90;;;;;;3068452;19;4411;-82
2023/02/01 00:49:21;;;;;;;;;;;18.70;40.80;;;;;;3070141;19;4606;-79
2023/02/01 00:50:22;;;;;;;;;;;18.70;40.90;;;;;;3071446;19;4410;-82
2023/02/01 00:51:25;;;;;;;;;;;18.70;40.90;;;;;;3068877;19;4875;-82
2023/02/01 00:52:25;;;;;;;;;;;18.70;40.90;;;;;;3067980;19;4536;-81
2023/02/01 00:53:26;;;;;;;;;;;18.70;40.90;;;;;;3066689;19;4402;-81
2023/02/01 00:54:27;;;;;;;;;;;18.70;40.90;;;;;;3069572;19;4899;-82
2023/02/01 00:55:27;;;;;;;;;;;18.60;40.90;;;;;;3069251;19;4353;-81
2023/02/01 00:56:28;;;;;;;;;;;18.70;41.00;;;;;;3070305;19;4569;-82
2023/02/01 00:57:29;;;;;;;;;;;18.70;41.00;;;;;;3070514;19;4892;-82
2023/02/01 00:58:29;;;;;;;;;;;18.60;40.90;;;;;;3068646;19;4616;-82
2023/02/01 00:59:30;;;;;;;;;;;18.60;41.00;;;;;;3069706;19;5025;-81
2023/02/01 01:00:32;;;;;;;;;;;18.60;40.90;;;;;;3067574;19;4999;-81
2023/02/01 01:01:32;;;;;;;;;;;18.60;41.10;;;;;;3069492;19;4468;-81
2023/02/01 01:02:33;;;;;;;;;;;18.60;41.00;;;;;;3069383;19;4966;-82
2023/02/01 01:03:37;;;;;;;;;;;18.60;41.00;;;;;;3066776;19;4379;-81
2023/02/01 01:04:38;;;;;;;;;;;18.60;41.00;;;;;;3069441;19;4842;-81
2023/02/01 01:05:39;;;;;;;;;;;18.60;41.10;;;;;;3068460;19;4369;-81
2023/02/01 01:06:40;;;;;;;;;;;18.60;41.20;;;;;;3070166;19;4978;-82
2023/02/01 01:07:41;;;;;;;;;;;18.60;41.10;;;;;;3066917;19;4773;-82
2023/02/01 01:08:42;;;;;;;;;;;18.60;41.10;;;;;;3069694;19;4523;-82
2023/02/01 01:09:42;;;;;;;;;;;18.60;41.10;;;;;;3068887;19;4951;-80
2023/02/01 01:10:43;;;;;;;;;;;18.60;41.20;;;;;;3068638;19;5044;-81
2023/02/01 01:11:44;;;;;;;;;;;18.50;41.20;;;;;;3069018;19;4379;-81
2023/02/01 01:12:45;;;;;;;;;;;18.60;41.20;;;;;;3069197;19;4373;-80
2023/02/01 01:13:49;;;;;;;;;;;18.50;41.10;;;;;;3066812;19;4377;-76
2023/02/01 01:14:50;;;;;;;;;;;18.50;41.20;;;;;;3067893;19;4353;-81
2023/02/01 01:15:50;;;;;;;;;;;18.50;41.20;;;;;;3069248;19;4843;-80
2023/02/01 01:16:51;;;;;;;;;;;18.50;41.30;;;;;;3066572;19;4280;-81
2023/02/01 01:17:52;;;;;;;;;;;18.50;41.30;;;;;;3067738;19;4456;-82
2023/02/01 01:18:53;;;;;;;;;;;18.50;41.30;;;;;;3066461;19;4359;-81
2023/02/01 01:19:53;;;;;;;;;;;18.50;41.20;;;;;;3067316;19;4310;-82
2023/02/01 01:20:54;;;;;;;;;;;18.50;41.20;;;;;;3067395;19;4423;-82
2023/02/01 01:21:55;;;;;;;;;;;18.50;41.30;;;;;;3070493;19;4893;-80
2023/02/01 01:22:55;;;;;;;;;;;18.50;41.30;;;;;;3069565;19;4289;-81
2023/02/01 01:23:56;;;;;;;;;;;18.50;41.40;;;;;;3065772;19;4401;-80
2023/02/01 01:24:56;;;;;;;;;;;18.50;41.30;;;;;;3067407;19;4690;-81
2023/02/01 01:25:57;;;;;;;;;;;18.50;41.30;;;;;;3068944;19;4394;-79
2023/02/01 01:26:58;;;;;;;;;;;18.50;41.40;;;;;;3068348;19;4965;-80
2023/02/01 01:27:58;;;;;;;;;;;18.50;41.40;;;;;;3068818;19;4849;-80
2023/02/01 01:28:59;;;;;;;;;;;18.50;41.40;;;;;;3068186;19;4336;-80
2023/02/01 01:30:00;;;;;;;;;;;18.50;41.30;;;;;;3067324;19;4736;-81
2023/02/01 01:31:00;;;;;;;;;;;18.50;41.40;;;;;;3066930;19;4719;-80
2023/02/01 01:32:01;;;;;;;;;;;18.50;41.40;;;;;;3064652;19;4423;-80
2023/02/01 01:33:02;;;;;;;;;;;18.50;41.40;;;;;;3067050;19;4963;-81
2023/02/01 01:34:03;;;;;;;;;;;18.50;41.50;;;;;;3065475;19;4610;-81
2023/02/01 01:35:04;;;;;;;;;;;18.50;41.40;;;;;;3066219;19;4193;-81
2023/02/01 01:36:10;;;;;;;;;;;18.40;41.40;;;;;;3065976;19;4407;-81
2023/02/01 01:37:11;;;;;;;;;;;18.50;41.40;;;;;;3067328;19;5114;-80
2023/02/01 01:38:12;;;;;;;;;;;18.40;41.40;;;;;;3065705;19;4973;-81
2023/02/01 01:39:12;;;;;;;;;;;18.50;42.10;;;;;;3066097;19;4900;-81
2023/02/01 01:40:14;;;;;;;;;;;18.40;41.40;;;;;;3069189;19;987;-81
2023/02/01 01:41:16;;;;;;;;;;;18.40;41.40;;;;;;3066739;19;4823;-81
2023/02/01 01:42:17;;;;;;;;;;;18.40;41.50;;;;;;3067895;19;4427;-82
2023/02/01 01:43:22;;;;;;;;;;;18.40;41.40;;;;;;3065908;19;4953;-82
2023/02/01 01:45:01;;;;;;;;;;;18.40;41.40;;;;;;3064979;19;4532;-81
2023/02/01 01:46:01;;;;;;;;;;;18.40;41.50;;;;;;3063781;19;4208;-81
2023/02/01 01:47:02;;;;;;;;;;;18.40;41.40;;;;;;3064449;19;4982;-82
2023/02/01 01:48:08;;;;;;;;;;;18.40;41.50;;;;;;3063694;19;4279;-80
2023/02/01 01:49:27;;;;;;;;;;;18.40;41.60;;;;;;3062952;19;4672;-81
2023/02/01 01:50:30;;;;;;;;;;;18.40;41.60;;;;;;3062190;19;4328;-80
2023/02/01 01:51:31;;;;;;;;;;;18.40;41.50;;;;;;3066046;19;4394;-80
2023/02/01 01:52:31;;;;;;;;;;;18.40;41.60;;;;;;3065358;19;5066;-79
2023/02/01 01:53:38;;;;;;;;;;;18.40;41.50;;;;;;3064252;19;4962;-81
2023/02/01 01:54:41;;;;;;;;;;;18.30;41.50;;;;;;3063865;19;4940;-80
2023/02/01 01:55:42;;;;;;;;;;;18.30;41.50;;;;;;3065159;19;5023;-81
2023/02/01 01:56:43;;;;;;;;;;;18.30;41.50;;;;;;3063574;19;4401;-81
2023/02/01 01:57:45;;;;;;;;;;;18.30;41.50;;;;;;3062727;19;4956;-81
2023/02/01 01:58:47;;;;;;;;;;;18.40;41.60;;;;;;3062993;19;4911;-81
2023/02/01 01:59:53;;;;;;;;;;;18.40;41.60;;;;;;3063141;19;4505;-81
2023/02/01 02:00:54;;;;;;;;;;;18.30;41.50;;;;;;3062224;19;4883;-81
2023/02/01 02:01:55;;;;;;;;;;;18.30;41.50;;;;;;3062802;19;4901;-81
2023/02/01 02:02:58;;;;;;;;;;;18.30;41.60;;;;;;3065198;19;4872;-81
2023/02/01 02:03:59;;;;;;;;;;;18.30;41.60;;;;;;3064401;19;4211;-81
2023/02/01 02:05:00;;;;;;;;;;;18.30;41.60;;;;;;3064126;19;5130;-81
2023/02/01 02:06:02;;;;;;;;;;;18.30;41.70;;;;;;3065541;19;4852;-79
2023/02/01 02:07:09;;;;;;;;;;;18.30;41.70;;;;;;3067056;19;4283;-80
2023/02/01 02:08:10;;;;;;;;;;;18.30;41.70;;;;;;3067606;19;4849;-80
2023/02/01 02:09:11;;;;;;;;;;;18.30;41.80;;;;;;3068040;19;4377;-79
2023/02/01 02:10:12;;;;;;;;;;;18.30;41.80;;;;;;3069538;19;984;-80
2023/02/01 02:11:13;;;;;;;;;;;18.30;41.80;;;;;;3066175;19;4781;-80
2023/02/01 02:12:14;;;;;;;;;;;18.30;41.70;;;;;;3069259;19;5108;-79
2023/02/01 02:13:14;;;;;;;;;;;18.30;41.60;;;;;;3066422;19;4920;-80
2023/02/01 02:14:16;;;;;;;;;;;18.30;41.80;;;;;;3068921;19;4427;-81
2023/02/01 02:15:16;;;;;;;;;;;18.30;41.80;;;;;;3067667;19;4363;-78
2023/02/01 02:16:40;;;;;;;;;;;18.30;41.80;;;;;;3069630;19;4854;-80
2023/02/01 02:17:53;;;;;;;;;;;18.20;41.80;;;;;;3066643;19;4925;-81
2023/02/01 02:19:39;;;;;;;;;;;18.30;41.90;;;;;;3068605;19;4382;-81
2023/02/01 02:21:03;;;;;;;;;;;18.20;41.80;;;;;;2965461;19;2004339;-80
2023/02/01 02:22:26;;;;;;;;;;;18.30;41.90;;;;;;3065952;19;4448;-80
2023/02/01 02:23:47;;;;;;;;;;;18.30;42.50;;;;;;2966437;19;2003846;-80
2023/02/01 02:25:06;;;;;;;;;;;18.20;41.80;;;;;;3068845;19;4859;-81
2023/02/01 02:26:38;;;;;;;;;;;18.20;41.80;;;;;;3069139;19;4911;-78
2023/02/01 02:28:00;;;;;;;;;;;18.20;41.90;;;;;;3068002;19;4376;-82
2023/02/01 19:19:17;;;;;;;;;;;18.20;41.90;;;;;;3057189;19;5471;-78
2023/02/01 19:20:19;;;;;;;;;;;19.70;39.90;;;;;;3060118;19;4960;-79
2023/02/01 19:21:20;;;;;;;;;;;19.60;39.90;;;;;;3058472;19;4762;-80
2023/02/01 19:22:20;;;;;;;;;;;19.60;39.80;;;;;;3058160;19;4856;-79
2023/02/01 19:23:21;;;;;;;;;;;19.60;39.80;;;;;;3059202;19;5006;-80
2023/02/01 19:24:26;;;;;;;;;;;19.60;39.70;;;;;;3058341;19;4824;-79
2023/02/01 19:25:28;;;;;;;;;;;19.60;39.70;;;;;;3058336;19;4931;-79
2023/02/01 19:26:29;;;;;;;;;;;19.60;39.70;;;;;;3058717;19;5083;-79
2023/02/01 19:27:30;;;;;;;;;;;19.60;39.80;;;;;;3057669;19;4971;-79
2023/02/01 19:28:31;;;;;;;;;;;19.60;39.90;;;;;;3057886;19;4477;-79
2023/02/01 19:29:31;;;;;;;;;;;19.60;40.00;;;;;;3057557;19;4393;-78
2023/02/01 19:30:32;;;;;;;;;;;19.50;39.90;;;;;;3056893;19;5170;-78
2023/02/01 19:31:33;;;;;;;;;;;19.50;39.90;;;;;;3057691;19;6399;-78
2023/02/01 19:32:33;;;;;;;;;;;19.50;40.00;;;;;;3057638;19;5458;-79
2023/02/01 19:33:35;;;;;;;;;;;19.50;40.00;;;;;;3057468;19;4962;-79
2023/02/01 19:34:37;;;;;;;;;;;19.50;40.00;;;;;;3056040;19;4433;-77
2023/02/01 19:35:38;;;;;;;;;;;19.50;40.00;;;;;;3056696;19;5418;-80
2023/02/01 19:36:40;;;;;;;;;;;19.50;39.90;;;;;;3056555;19;5451;-79
2023/02/01 19:37:41;;;;;;;;;;;19.50;39.90;;;;;;3055110;19;4996;-80
2023/02/01 19:38:42;;;;;;;;;;;19.50;40.00;;;;;;3055613;19;4960;-79
2023/02/01 19:39:42;;;;;;;;;;;19.50;40.30;;;;;;3055682;19;5090;-79
2023/02/01 19:40:43;;;;;;;;;;;19.50;40.20;;;;;;3056015;19;5073;-79
2023/02/01 19:41:44;;;;;;;;;;;19.50;40.20;;;;;;3057562;19;4866;-80
2023/02/01 19:42:45;;;;;;;;;;;19.60;40.10;;;;;;3057264;19;5287;-79
2023/02/01 19:43:46;;;;;;;;;;;19.60;40.10;;;;;;3055248;19;5000;-81
2023/02/01 19:44:46;;;;;;;;;;;19.60;40.00;;;;;;3055743;19;5002;-78
2023/02/01 19:45:47;;;;;;;;;;;19.60;39.90;;;;;;3055607;19;5134;-79
2023/02/01 19:46:48;;;;;;;;;;;19.60;40.00;;;;;;3055314;19;4922;-79
2023/02/01 19:47:48;;;;;;;;;;;19.60;39.90;;;;;;3056016;19;4450;-80
2023/02/01 19:48:49;;;;;;;;;;;19.60;39.80;;;;;;3056339;19;4444;-78
2023/02/01 19:49:50;;;;;;;;;;;19.70;39.90;;;;;;3056196;19;4461;-79
2023/02/01 19:50:50;;;;;;;;;;;19.70;39.90;;;;;;3056200;19;4832;-78
2023/02/01 19:51:51;;;;;;;;;;;19.70;39.90;;;;;;3055820;19;4977;-79
2023/02/01 19:52:51;;;;;;;;;;;19.70;39.90;;;;;;3056439;19;4981;-80
2023/02/01 19:53:52;;;;;;;;;;;19.70;40.00;;;;;;3055959;19;5004;-79
2023/02/01 19:54:53;;;;;;;;;;;19.70;40.00;;;;;;3055699;19;4996;-79
2023/02/01 19:55:57;;;;;;;;;;;19.70;40.10;;;;;;3056124;19;4936;-78
2023/02/01 19:56:58;;;;;;;;;;;19.70;40.00;;;;;;3056304;19;4401;-80
2023/02/01 19:58:01;;;;;;;;;;;19.70;40.00;;;;;;3056227;19;4356;-79
2023/02/01 19:59:02;;;;;;;;;;;19.70;40.00;;;;;;3055933;19;4445;-79
2023/02/01 20:00:04;;;;;;;;;;;19.80;40.00;;;;;;3055613;19;4981;-79
2023/02/01 20:01:08;;;;;;;;;;;19.80;39.90;;;;;;3056152;19;4903;-80
2023/02/01 20:02:14;;;;;;;;;;;19.80;39.90;;;;;;3056603;19;4702;-79
2023/02/01 20:03:15;;;;;;;;;;;19.80;39.80;;;;;;3055631;19;4909;-79
2023/02/01 20:04:16;;;;;;;;;;;19.80;39.70;;;;;;3056155;19;5418;-79
2023/02/01 20:05:18;;;;;;;;;;;19.90;39.70;;;;;;3055914;19;5438;-80
2023/02/01 20:06:19;;;;;;;;;;;19.90;39.70;;;;;;3056435;19;5125;-78
2023/02/01 20:07:20;;;;;;;;;;;19.90;39.70;;;;;;3056397;19;4987;-80
2023/02/01 20:08:20;;;;;;;;;;;19.90;39.70;;;;;;3056299;19;5382;-80
2023/02/01 20:09:23;;;;;;;;;;;19.90;39.60;;;;;;3056662;19;4895;-79
2023/02/01 20:10:23;;;;;;;;;;;19.90;39.70;;;;;;3056476;19;4985;-79
2023/02/01 20:11:25;;;;;;;;;;;19.90;39.60;;;;;;3056121;19;4390;-79
2023/02/01 20:12:25;;;;;;;;;;;19.90;39.60;;;;;;3055717;19;4469;-79
2023/02/01 20:13:26;;;;;;;;;;;19.90;39.60;;;;;;3056026;19;4594;-79
2023/02/01 20:14:27;;;;;;;;;;;19.90;39.70;;;;;;3056362;19;5374;-79
2023/02/01 20:15:28;;;;;;;;;;;19.90;39.50;;;;;;3056825;19;5408;-80
2023/02/01 20:16:28;;;;;;;;;;;19.90;39.50;;;;;;3055672;19;5221;-79
2023/02/01 20:17:29;;;;;;;;;;;19.90;39.60;;;;;;3056511;19;4962;-79
2023/02/01 20:18:30;;;;;;;;;;;19.90;39.50;;;;;;3055839;19;4539;-78
2023/02/01 20:19:31;;;;;;;;;;;19.90;39.60;;;;;;3055920;19;4549;-79
2023/02/01 20:20:32;;;;;;;;;;;19.90;39.50;;;;;;3056500;19;4898;-79
2023/02/01 20:21:33;;;;;;;;;;;19.90;39.50;;;;;;3055853;19;4979;-80
2023/02/01 20:22:33;;;;;;;;;;;19.80;39.50;;;;;;3056376;19;4407;-79
2023/02/01 20:23:34;;;;;;;;;;;19.80;39.60;;;;;;3055250;19;4959;-77
2023/02/01 20:24:35;;;;;;;;;;;19.80;39.60;;;;;;3056815;19;4412;-79
2023/02/01 20:25:36;;;;;;;;;;;19.80;39.70;;;;;;3058760;19;5086;-80
2023/02/01 20:26:38;;;;;;;;;;;19.80;39.70;;;;;;3059464;19;5542;-80
2023/02/01 20:27:39;;;;;;;;;;;19.80;39.70;;;;;;3058651;19;4416;-78
2023/02/01 20:28:40;;;;;;;;;;;19.80;39.80;;;;;;3058497;19;5003;-80
2023/02/01 20:29:40;;;;;;;;;;;19.80;39.70;;;;;;3059418;19;5032;-78
2023/02/01 20:30:45;;;;;;;;;;;19.80;39.80;;;;;;3059456;19;5114;-79
2023/02/01 20:31:45;;;;;;;;;;;19.70;39.70;;;;;;3059241;19;4452;-79
2023/02/01 20:32:49;;;;;;;;;;;19.70;39.80;;;;;;3059571;19;4931;-80
2023/02/01 20:33:51;;;;;;;;;;;19.70;39.70;;;;;;3059139;19;4945;-79
2023/02/01 20:34:53;;;;;;;;;;;19.70;39.90;;;;;;3059396;19;5039;-79
2023/02/01 20:35:54;;;;;;;;;;;19.70;40.00;;;;;;3059085;19;4973;-79
2023/02/01 20:36:54;;;;;;;;;;;19.60;39.80;;;;;;3058614;19;4387;-80
2023/02/01 20:37:57;;;;;;;;;;;19.70;40.00;;;;;;3059194;19;4474;-79
2023/02/01 20:38:58;;;;;;;;;;;19.60;40.00;;;;;;3059455;19;4380;-80
2023/02/01 20:39:59;;;;;;;;;;;19.60;39.90;;;;;;3057278;19;4992;-78
2023/02/01 20:41:03;;;;;;;;;;;19.60;40.00;;;;;;3059325;19;4959;-79
2023/02/01 20:42:04;;;;;;;;;;;19.60;40.00;;;;;;3059329;19;5099;-80
2023/02/01 20:43:05;;;;;;;;;;;19.60;39.80;;;;;;3056269;19;4818;-79
2023/02/01 20:44:05;;;;;;;;;;;19.60;40.00;;;;;;3058326;19;4864;-79
2023/02/01 20:45:07;;;;;;;;;;;19.60;40.00;;;;;;3060065;19;877;-79
2023/02/01 20:46:08;;;;;;;;;;;19.60;39.90;;;;;;3058705;19;4897;-79
2023/02/01 20:47:10;;;;;;;;;;;19.50;40.00;;;;;;3059361;19;5043;-80
2023/02/01 20:48:11;;;;;;;;;;;19.50;40.00;;;;;;3058487;19;4529;-80
2023/02/01 20:49:11;;;;;;;;;;;19.50;40.00;;;;;;3059477;19;5011;-80
2023/02/01 20:50:12;;;;;;;;;;;19.50;40.00;;;;;;3058908;19;4613;-79
2023/02/01 20:51:16;;;;;;;;;;;19.50;40.10;;;;;;3059483;19;4937;-80
2023/02/01 20:52:16;;;;;;;;;;;19.50;40.20;;;;;;3058941;19;4989;-79
2023/02/01 20:53:18;;;;;;;;;;;19.40;40.10;;;;;;3058810;19;5006;-79
2023/02/01 20:54:19;;;;;;;;;;;19.50;40.20;;;;;;3058765;19;4383;-79
2023/02/01 20:55:20;;;;;;;;;;;19.40;39.90;;;;;;3058699;19;5502;-79
2023/02/01 20:56:20;;;;;;;;;;;19.50;40.10;;;;;;3058806;19;5173;-78
2023/02/01 20:57:21;;;;;;;;;;;19.40;40.20;;;;;;3059668;19;4457;-80
2023/02/01 20:58:22;;;;;;;;;;;19.40;40.20;;;;;;3059177;19;4984;-80
2023/02/01 20:59:24;;;;;;;;;;;19.40;40.20;;;;;;3059242;19;5131;-80
2023/02/01 21:00:26;;;;;;;;;;;19.40;40.10;;;;;;3059596;19;5404;-79
2023/02/01 21:01:30;;;;;;;;;;;19.40;40.20;;;;;;3059440;19;5015;-79
2023/02/01 21:02:31;;;;;;;;;;;19.30;40.10;;;;;;3059876;19;5008;-79
2023/02/01 21:03:31;;;;;;;;;;;19.30;40.20;;;;;;3059978;19;5021;-78
2023/02/01 21:04:33;;;;;;;;;;;19.30;40.20;;;;;;3060457;19;5044;-80
2023/02/01 21:05:39;;;;;;;;;;;19.30;40.20;;;;;;3059528;19;4858;-79
2023/02/01 21:06:40;;;;;;;;;;;19.30;40.20;;;;;;3060404;19;4916;-78
2023/02/01 21:07:40;;;;;;;;;;;19.30;40.30;;;;;;3059501;19;4967;-80
2023/02/01 21:08:41;;;;;;;;;;;19.30;40.10;;;;;;3060630;19;4903;-79
2023/02/01 21:09:42;;;;;;;;;;;19.30;40.20;;;;;;3060245;19;5007;-80
2023/02/01 21:10:43;;;;;;;;;;;19.30;40.10;;;;;;3060331;19;4403;-78
2023/02/01 21:11:44;;;;;;;;;;;19.30;40.30;;;;;;3061135;19;5028;-80
2023/02/01 21:12:45;;;;;;;;;;;19.30;40.40;;;;;;3060332;19;4440;-80
2023/02/01 21:13:51;;;;;;;;;;;19.20;40.30;;;;;;3060287;19;5444;-79
2023/02/01 21:14:54;;;;;;;;;;;19.30;40.40;;;;;;3060271;19;4994;-81
2023/02/01 21:15:54;;;;;;;;;;;19.20;40.20;;;;;;3060018;19;4908;-80
2023/02/01 21:16:55;;;;;;;;;;;19.20;40.40;;;;;;3056552;19;4400;-78
2023/02/01 21:17:56;;;;;;;;;;;19.30;40.40;;;;;;3056374;19;4312;-78
2023/02/01 21:18:56;;;;;;;;;;;19.20;40.40;;;;;;3057838;19;4960;-79
2023/02/01 21:19:57;;;;;;;;;;;19.20;40.40;;;;;;3059682;19;4970;-79
2023/02/01 21:21:09;;;;;;;;;;;19.20;40.40;;;;;;3062382;19;5986;-79
2023/02/01 21:22:10;;;;;;;;;;;19.20;40.40;;;;;;3071851;19;5056;-77
2023/02/01 21:23:11;;;;;;;;;;;19.20;40.30;;;;;;3073165;19;5123;-77
2023/02/01 21:24:11;;;;;;;;;;;19.20;40.40;;;;;;3072068;19;5007;-78
2023/02/01 21:25:13;;;;;;;;;;;19.20;40.40;;;;;;3072631;19;4559;-78
2023/02/01 21:26:20;;;;;;;;;;;19.20;40.40;;;;;;3071931;19;5067;-78
2023/02/01 21:27:21;;;;;;;;;;;19.20;40.40;;;;;;3073229;19;5025;-78
2023/02/01 21:28:21;;;;;;;;;;;19.20;40.40;;;;;;3071902;19;4905;-77
2023/02/01 21:29:22;;;;;;;;;;;19.20;40.50;;;;;;3072789;19;5107;-77
2023/02/01 21:30:23;;;;;;;;;;;19.20;40.50;;;;;;3071636;19;4965;-77
2023/02/01 21:31:24;;;;;;;;;;;19.10;40.50;;;;;;3070920;19;4972;-79
2023/02/01 21:32:25;;;;;;;;;;;19.20;40.50;;;;;;3071088;19;5058;-79
2023/02/01 21:33:25;;;;;;;;;;;19.10;40.50;;;;;;3071914;19;5441;-78
2023/02/01 21:34:26;;;;;;;;;;;19.10;40.50;;;;;;3071575;19;5020;-79
2023/02/01 21:35:27;;;;;;;;;;;19.10;40.50;;;;;;3069920;19;4349;-79
2023/02/01 21:36:30;;;;;;;;;;;19.10;40.50;;;;;;3071374;19;5151;-77
2023/02/01 21:37:32;;;;;;;;;;;19.10;40.60;;;;;;3066919;19;5016;-78
2023/02/01 21:38:33;;;;;;;;;;;19.10;40.50;;;;;;3065458;19;5304;-77
2023/02/01 21:39:33;;;;;;;;;;;19.10;40.60;;;;;;3062786;19;5064;-78
2023/02/01 21:40:35;;;;;;;;;;;19.10;40.70;;;;;;3060533;19;4437;-78
2023/02/01 21:42:55;;;;;;;;;;;19.10;40.60;;;;;;3060795;19;6271;-79
2023/02/01 21:43:55;;;;;;;;;;;19.00;40.60;;;;;;3059985;19;4947;-78
2023/02/01 21:44:58;;;;;;;;;;;19.10;40.60;;;;;;3059960;19;4897;-79
2023/02/01 21:45:58;;;;;;;;;;;19.00;40.50;;;;;;3060706;19;5290;-79
2023/02/01 21:46:59;;;;;;;;;;;19.00;40.60;;;;;;3060148;19;4953;-78
2023/02/01 21:48:02;;;;;;;;;;;19.00;40.60;;;;;;3059847;19;5146;-78
2023/02/01 21:49:03;;;;;;;;;;;19.00;40.50;;;;;;3059981;19;4994;-77
2023/02/01 21:50:06;;;;;;;;;;;19.00;40.60;;;;;;3059296;19;4508;-79
2023/02/01 21:51:08;;;;;;;;;;;19.00;40.60;;;;;;3058183;19;5060;-79
2023/02/01 21:52:10;;;;;;;;;;;19.00;40.60;;;;;;3057631;19;5581;-78
2023/02/01 21:53:11;;;;;;;;;;;19.00;40.60;;;;;;3057182;19;878;-78
2023/02/01 21:54:11;;;;;;;;;;;19.00;40.60;;;;;;3057103;19;5046;-79
2023/02/01 21:55:13;;;;;;;;;;;19.00;40.60;;;;;;3058332;19;4524;-78
2023/02/01 21:56:13;;;;;;;;;;;19.00;40.60;;;;;;3057190;19;5050;-79
2023/02/01 21:57:14;;;;;;;;;;;19.00;40.70;;;;;;3057439;19;4884;-78
2023/02/01 21:58:14;;;;;;;;;;;19.00;40.70;;;;;;3057922;19;5621;-78
2023/02/01 21:59:15;;;;;;;;;;;19.00;40.60;;;;;;3057612;19;4989;-78
2023/02/01 22:00:16;;;;;;;;;;;19.00;40.60;;;;;;3058149;19;4978;-79
2023/02/01 22:01:17;;;;;;;;;;;19.00;40.70;;;;;;3057818;19;5408;-77
2023/02/01 22:02:19;;;;;;;;;;;19.00;40.70;;;;;;3056774;19;4989;-78
2023/02/01 22:03:19;;;;;;;;;;;18.90;40.70;;;;;;3057111;19;5109;-79
2023/02/01 22:04:20;;;;;;;;;;;19.00;40.70;;;;;;3058096;19;6271;-78
2023/02/01 22:05:20;;;;;;;;;;;19.00;40.70;;;;;;3058046;19;5013;-79
2023/02/01 22:06:23;;;;;;;;;;;18.90;40.60;;;;;;3057161;19;5079;-78
2023/02/01 22:07:23;;;;;;;;;;;18.90;40.60;;;;;;3057334;19;4414;-78
2023/02/01 22:08:25;;;;;;;;;;;19.00;40.70;;;;;;3057592;19;5008;-78
2023/02/01 22:09:26;;;;;;;;;;;18.90;40.70;;;;;;3055920;19;4554;-79
2023/02/01 22:10:27;;;;;;;;;;;18.90;40.70;;;;;;3057268;19;5001;-78
2023/02/01 22:11:27;;;;;;;;;;;18.90;40.70;;;;;;3056773;19;5138;-77
2023/02/01 22:12:28;;;;;;;;;;;18.90;40.80;;;;;;3056396;19;4997;-79
2023/02/01 22:13:29;;;;;;;;;;;18.90;40.80;;;;;;3056317;19;5408;-79
2023/02/01 22:14:30;;;;;;;;;;;18.90;40.90;;;;;;3055075;19;4627;-78
2023/02/01 22:15:30;;;;;;;;;;;18.90;40.80;;;;;;3056215;19;5039;-77
2023/02/01 22:16:31;;;;;;;;;;;18.90;40.90;;;;;;3053677;19;5332;-78
2023/02/01 22:17:32;;;;;;;;;;;18.90;40.80;;;;;;3056554;19;4841;-79
2023/02/01 22:18:32;;;;;;;;;;;18.90;40.80;;;;;;3055916;19;4429;-79
2023/02/01 22:19:33;;;;;;;;;;;18.90;40.90;;;;;;3056330;19;4955;-78
2023/02/01 22:20:34;;;;;;;;;;;18.80;40.80;;;;;;3056299;19;4989;-79
2023/02/01 22:21:35;;;;;;;;;;;18.90;40.90;;;;;;3057029;19;5172;-78
2023/02/01 22:22:35;;;;;;;;;;;18.80;40.80;;;;;;3055414;19;4329;-78
2023/02/01 22:23:36;;;;;;;;;;;18.80;40.80;;;;;;3055017;19;5023;-78
2023/02/01 22:24:37;;;;;;;;;;;18.90;40.90;;;;;;3055314;19;4501;-78
2023/02/01 22:25:37;;;;;;;;;;;18.80;40.80;;;;;;3056514;19;4416;-78
2023/02/01 22:26:39;;;;;;;;;;;18.80;40.80;;;;;;3056957;19;5059;-79
2023/02/01 22:27:41;;;;;;;;;;;18.80;40.90;;;;;;3056599;19;5029;-80
2023/02/01 22:28:42;;;;;;;;;;;18.80;40.90;;;;;;3056727;19;4615;-78
2023/02/01 22:29:43;;;;;;;;;;;18.80;40.90;;;;;;3055422;19;5487;-79
2023/02/01 22:30:43;;;;;;;;;;;18.80;41.00;;;;;;3055287;19;4879;-79
2023/02/01 22:31:44;;;;;;;;;;;18.80;40.90;;;;;;3056801;19;5099;-78
2023/02/01 22:32:45;;;;;;;;;;;18.80;40.90;;;;;;3056230;19;5007;-79
2023/02/01 22:33:46;;;;;;;;;;;18.80;40.90;;;;;;3055808;19;5412;-79
2023/02/01 22:34:47;;;;;;;;;;;18.80;41.00;;;;;;3056447;19;4969;-79
2023/02/01 22:35:50;;;;;;;;;;;18.80;41.00;;;;;;3056171;19;4968;-78
2023/02/01 22:36:51;;;;;;;;;;;18.80;41.00;;;;;;3056019;19;4619;-78
2023/02/01 22:37:52;;;;;;;;;;;18.80;41.00;;;;;;3057195;19;4994;-80
2023/02/01 22:38:53;;;;;;;;;;;18.80;41.00;;;;;;3056006;19;5405;-78
2023/02/01 22:39:54;;;;;;;;;;;18.80;41.00;;;;;;3055989;19;4311;-78
2023/02/01 22:40:55;;;;;;;;;;;18.70;41.00;;;;;;3056886;19;4533;-80
2023/02/01 22:41:56;;;;;;;;;;;18.80;41.00;;;;;;3056261;19;4887;-78
2023/02/01 22:42:57;;;;;;;;;;;18.80;41.00;;;;;;3056188;19;4968;-78
2023/02/01 22:43:59;;;;;;;;;;;18.70;40.90;;;;;;3057046;19;5100;-78
2023/02/01 22:45:00;;;;;;;;;;;18.70;41.00;;;;;;3056539;19;5443;-79
2023/02/01 22:46:05;;;;;;;;;;;18.70;41.00;;;;;;3056553;19;4440;-78
2023/02/01 22:47:05;;;;;;;;;;;18.70;40.90;;;;;;3053191;19;5069;-77
2023/02/01 22:48:06;;;;;;;;;;;18.70;41.00;;;;;;3053100;19;5004;-78
2023/02/01 22:49:07;;;;;;;;;;;18.70;41.00;;;;;;3053785;19;5180;-78
2023/02/01 22:50:08;;;;;;;;;;;18.70;40.80;;;;;;3053748;19;5011;-80
2023/02/01 22:51:19;;;;;;;;;;;18.70;41.10;;;;;;3055823;19;5002;-77
2023/02/01 22:52:19;;;;;;;;;;;18.70;41.20;;;;;;3051319;19;4493;-77
2023/02/01 22:53:20;;;;;;;;;;;18.70;41.10;;;;;;3055396;19;5030;-81
2023/02/01 22:54:20;;;;;;;;;;;18.70;41.10;;;;;;3056026;19;4525;-77
2023/02/01 22:55:21;;;;;;;;;;;18.70;41.10;;;;;;3056525;19;5087;-77
2023/02/01 22:56:31;;;;;;;;;;;18.70;41.00;;;;;;3054394;19;5252;-77
2023/02/01 22:57:32;;;;;;;;;;;18.70;41.20;;;;;;3056460;19;5480;-76
2023/02/01 22:58:36;;;;;;;;;;;18.70;41.20;;;;;;3056528;19;5326;-76